Eaglesham, United Kingdom
Current Conditions -  °F | °C
As of 2:20 AM on Sunday 26 Oct 2014 (Local Time) from EGPF Reporting Station
Light Rain Light Rain  
Wind Chill: 54°   Ceiling: 2600
Heat Index: 54°   Visibility: 6mi
Dew Point: 46°   Wind: 18mph
Humidity: 77%   Direction: 220°SW
Pressure: 29.71"   Gusts: NA
Location:  55.74°N, 4.27°W
Report Text: EGPF 260120Z AUTO 22016KT 9999 -RA BKN026 12/08 Q1006
Loading
Personal Weather Stations






























Interactive Weather Map
Tropical Storm Tracking
New forecast layout! Learn more

10-Day Weather Forecast

Advertisements
Track Severe Weather on mobile